createdAt,value
2022-08-03T00:00:59.223Z,1004.12
2022-08-03T00:01:59.213Z,1004.21
2022-08-03T00:02:59.200Z,1004.17
2022-08-03T00:03:59.194Z,1004.15
2022-08-03T00:04:59.177Z,1004.1
2022-08-03T00:05:59.169Z,1004.11
2022-08-03T00:06:59.155Z,1004.09
2022-08-03T00:07:59.146Z,1004.08
2022-08-03T00:08:59.146Z,1004.05
2022-08-03T00:09:59.122Z,1004.06
2022-08-03T00:10:59.116Z,1004.06
2022-08-03T00:11:59.108Z,1004.05
2022-08-03T00:12:59.096Z,1004.06
2022-08-03T00:13:59.080Z,1004.04
2022-08-03T00:14:59.089Z,1004.01
2022-08-03T00:15:59.061Z,1004.05
2022-08-03T00:16:59.048Z,1004.02
2022-08-03T00:17:59.041Z,1004.05
2022-08-03T00:18:59.050Z,1004.05
2022-08-03T00:19:59.013Z,1004.08
2022-08-03T00:20:59.006Z,1004.04
2022-08-03T00:21:58.996Z,1004.05
2022-08-03T00:22:59.002Z,1004.03
2022-08-03T00:23:58.978Z,1004.06
2022-08-03T00:24:58.961Z,1004.04
2022-08-03T00:25:58.977Z,1004.04
2022-08-03T00:26:58.952Z,1004.06
2022-08-03T00:27:58.937Z,1003.99
2022-08-03T00:28:58.923Z,1004.03
2022-08-03T00:29:58.913Z,1004.03
2022-08-03T00:30:58.911Z,1003.97
2022-08-03T00:31:58.907Z,1004
2022-08-03T00:32:58.894Z,1004
2022-08-03T00:33:58.867Z,1003.98
2022-08-03T00:34:58.865Z,1003.94
2022-08-03T00:35:58.858Z,1003.93
2022-08-03T00:36:58.839Z,1003.97
2022-08-03T00:37:58.841Z,1003.96
2022-08-03T00:38:58.827Z,1003.94
2022-08-03T00:39:58.818Z,1003.9
2022-08-03T00:40:58.807Z,1003.93
2022-08-03T00:41:58.788Z,1003.99
2022-08-03T00:42:58.782Z,1003.89
2022-08-03T00:43:58.770Z,1003.94
2022-08-03T00:44:58.754Z,1003.89
2022-08-03T00:45:58.747Z,1003.93
2022-08-03T00:46:58.735Z,1003.89
2022-08-03T00:47:58.737Z,1003.89
2022-08-03T00:48:58.710Z,1003.89
2022-08-03T00:49:58.702Z,1003.9
2022-08-03T00:50:58.707Z,1003.91
2022-08-03T00:51:58.692Z,1003.89
2022-08-03T00:52:58.672Z,1003.95
2022-08-03T00:53:58.670Z,1003.84
2022-08-03T00:54:58.653Z,1003.89
2022-08-03T00:55:58.645Z,1003.85
2022-08-03T00:56:58.644Z,1003.89
2022-08-03T00:57:58.626Z,1003.82
2022-08-03T00:58:58.615Z,1003.85
2022-08-03T00:59:58.604Z,1003.86
2022-08-03T01:00:58.592Z,1003.87
2022-08-03T01:01:58.578Z,1003.86
2022-08-03T01:02:58.576Z,1003.86
2022-08-03T01:03:58.558Z,1003.9
2022-08-03T01:04:58.552Z,1003.87
2022-08-03T01:05:58.541Z,1003.87
2022-08-03T01:06:58.528Z,1003.9
2022-08-03T01:07:58.544Z,1003.85
2022-08-03T01:08:58.502Z,1003.87
2022-08-03T01:09:58.517Z,1003.81
2022-08-03T01:10:58.483Z,1003.85
2022-08-03T01:11:58.480Z,1003.86
2022-08-03T01:12:58.465Z,1003.86
2022-08-03T01:13:58.456Z,1003.84
2022-08-03T01:14:58.441Z,1003.84
2022-08-03T01:15:58.429Z,1003.83
2022-08-03T01:16:58.420Z,1003.82
2022-08-03T01:17:58.434Z,1003.8
2022-08-03T01:18:58.400Z,1003.8
2022-08-03T01:19:58.385Z,1003.81
2022-08-03T01:20:58.382Z,1003.77
2022-08-03T01:21:58.362Z,1003.83
2022-08-03T01:22:58.359Z,1003.78
2022-08-03T01:23:58.349Z,1003.84
2022-08-03T01:24:58.336Z,1003.83
2022-08-03T01:25:58.328Z,1003.78
2022-08-03T01:26:58.313Z,1003.83
2022-08-03T01:27:58.301Z,1003.84
2022-08-03T01:28:58.302Z,1003.83
2022-08-03T01:29:58.281Z,1003.87
2022-08-03T01:30:58.274Z,1003.91
2022-08-03T01:31:58.260Z,1003.8
2022-08-03T01:32:58.259Z,1003.83
2022-08-03T01:33:58.239Z,1003.88
2022-08-03T01:34:58.225Z,1003.82
2022-08-03T01:35:58.236Z,1003.85
2022-08-03T01:36:58.218Z,1003.85
2022-08-03T01:37:58.206Z,1003.8
2022-08-03T01:38:58.187Z,1003.86
2022-08-03T01:39:58.176Z,1003.85
2022-08-03T01:40:58.158Z,1003.86
2022-08-03T01:41:58.154Z,1003.85
2022-08-03T01:42:58.152Z,1003.86
2022-08-03T01:43:58.129Z,1003.82
2022-08-03T01:44:58.121Z,1003.8
2022-08-03T01:45:58.112Z,1003.78
2022-08-03T01:46:58.123Z,1003.84
2022-08-03T01:47:58.096Z,1003.79
2022-08-03T01:48:58.088Z,1003.82
2022-08-03T01:49:58.077Z,1003.78
2022-08-03T01:50:58.054Z,1003.78
2022-08-03T01:51:58.043Z,1003.82
2022-08-03T01:52:58.038Z,1003.88
2022-08-03T01:53:58.023Z,1003.84
2022-08-03T01:54:58.025Z,1003.77
2022-08-03T01:55:58.000Z,1003.84
2022-08-03T01:56:57.994Z,1003.81
2022-08-03T01:57:57.979Z,1003.8
2022-08-03T01:58:57.980Z,1003.8
2022-08-03T01:59:57.963Z,1003.86
2022-08-03T02:00:57.959Z,1003.79
2022-08-03T02:01:57.937Z,1003.77
2022-08-03T02:02:57.932Z,1003.78
2022-08-03T02:03:57.919Z,1003.75
2022-08-03T02:04:57.909Z,1003.72
2022-08-03T02:05:57.893Z,1003.73
2022-08-03T02:06:57.889Z,1003.68
2022-08-03T02:07:57.874Z,1003.75
2022-08-03T02:08:57.865Z,1003.71
2022-08-03T02:09:57.858Z,1003.7
2022-08-03T02:10:57.846Z,1003.76
2022-08-03T02:11:57.826Z,1003.79
2022-08-03T02:12:57.823Z,1003.76
2022-08-03T02:13:57.815Z,1003.77
2022-08-03T02:14:57.802Z,1003.73
2022-08-03T02:15:57.796Z,1003.74
2022-08-03T02:16:57.786Z,1003.76
2022-08-03T02:17:57.782Z,1003.8
2022-08-03T02:18:57.770Z,1003.69
2022-08-03T02:19:57.749Z,1003.73
2022-08-03T02:20:57.746Z,1003.74
2022-08-03T02:21:57.729Z,1003.75
2022-08-03T02:22:57.719Z,1003.73
2022-08-03T02:23:57.703Z,1003.76
2022-08-03T02:24:57.693Z,1003.74
2022-08-03T02:25:57.712Z,1003.76
2022-08-03T02:26:57.668Z,1003.73
2022-08-03T02:27:57.662Z,1003.68
2022-08-03T02:28:57.654Z,1003.69
2022-08-03T02:29:57.641Z,1003.66
2022-08-03T02:30:57.639Z,1003.68
2022-08-03T02:31:57.626Z,1003.63
2022-08-03T02:32:57.619Z,1003.62
2022-08-03T02:33:57.596Z,1003.61
2022-08-03T02:34:57.586Z,1003.66
2022-08-03T02:35:57.584Z,1003.62
2022-08-03T02:36:57.568Z,1003.59
2022-08-03T02:37:58.312Z,1003.66
2022-08-03T02:38:57.547Z,1003.64
2022-08-03T02:39:57.535Z,1003.66
2022-08-03T02:40:57.523Z,1003.65
2022-08-03T02:41:57.524Z,1003.61
2022-08-03T02:42:57.508Z,1003.66
2022-08-03T02:43:57.487Z,1003.65
2022-08-03T02:44:57.477Z,1003.63
2022-08-03T02:45:57.475Z,1003.59
2022-08-03T02:46:57.455Z,1003.57
2022-08-03T02:47:57.453Z,1003.61
2022-08-03T02:48:57.433Z,1003.58
2022-08-03T02:49:57.435Z,1003.56
2022-08-03T02:50:57.418Z,1003.55
2022-08-03T02:51:57.411Z,1003.64
2022-08-03T02:52:57.391Z,1003.58
2022-08-03T02:53:57.385Z,1003.58
2022-08-03T02:54:57.371Z,1003.55
2022-08-03T02:55:57.361Z,1003.59
2022-08-03T02:56:57.354Z,1003.63
2022-08-03T02:57:57.348Z,1003.55
2022-08-03T02:58:57.328Z,1003.59
2022-08-03T02:59:57.321Z,1003.59
2022-08-03T03:00:57.311Z,1003.58
2022-08-03T03:01:57.311Z,1003.58
2022-08-03T03:02:57.299Z,1003.62
2022-08-03T03:03:57.275Z,1003.6
2022-08-03T03:04:57.268Z,1003.58
2022-08-03T03:05:57.256Z,1003.66
2022-08-03T03:06:57.243Z,1003.57
2022-08-03T03:07:57.244Z,1003.55
2022-08-03T03:08:57.221Z,1003.6
2022-08-03T03:09:57.212Z,1003.59
2022-08-03T03:10:57.204Z,1003.58
2022-08-03T03:11:57.185Z,1003.61
2022-08-03T03:12:57.183Z,1003.62
2022-08-03T03:13:57.174Z,1003.63
2022-08-03T03:14:57.157Z,1003.56
2022-08-03T03:15:57.145Z,1003.61
2022-08-03T03:16:57.138Z,1003.62
2022-08-03T03:17:57.134Z,1003.58
2022-08-03T03:18:57.116Z,1003.62
2022-08-03T03:19:57.118Z,1003.6
2022-08-03T03:20:57.091Z,1003.54
2022-08-03T03:21:57.086Z,1003.58
2022-08-03T03:22:57.069Z,1003.63
2022-08-03T03:23:57.070Z,1003.59
2022-08-03T03:24:57.046Z,1003.6
2022-08-03T03:25:57.045Z,1003.61
2022-08-03T03:26:57.031Z,1003.59
2022-08-03T03:27:57.019Z,1003.69
2022-08-03T03:28:57.004Z,1003.63
2022-08-03T03:29:57.003Z,1003.68
2022-08-03T03:30:56.986Z,1003.62
2022-08-03T03:31:56.994Z,1003.65
2022-08-03T03:32:56.963Z,1003.66
2022-08-03T03:33:56.966Z,1003.67
2022-08-03T03:34:56.944Z,1003.66
2022-08-03T03:35:56.937Z,1003.65
2022-08-03T03:36:56.915Z,1003.62
2022-08-03T03:37:56.914Z,1003.66
2022-08-03T03:38:56.924Z,1003.66
2022-08-03T03:39:56.898Z,1003.68
2022-08-03T03:40:56.876Z,1003.67
2022-08-03T03:41:56.867Z,1003.63
2022-08-03T03:42:56.862Z,1003.65
2022-08-03T03:43:56.842Z,1003.67
2022-08-03T03:44:56.845Z,1003.72
2022-08-03T03:45:56.822Z,1003.67
2022-08-03T03:46:56.820Z,1003.7
2022-08-03T03:47:56.803Z,1003.71
2022-08-03T03:48:56.802Z,1003.7
2022-08-03T03:49:56.774Z,1003.74
2022-08-03T03:50:56.773Z,1003.69
2022-08-03T03:51:56.761Z,1003.68
2022-08-03T03:52:56.766Z,1003.65
2022-08-03T03:53:56.737Z,1003.63
2022-08-03T03:54:56.728Z,1003.64
2022-08-03T03:55:56.717Z,1003.68
2022-08-03T03:56:56.718Z,1003.69
2022-08-03T03:57:56.697Z,1003.7
2022-08-03T03:58:56.679Z,1003.66
2022-08-03T03:59:56.671Z,1003.65
2022-08-03T04:00:56.681Z,1003.65
2022-08-03T04:01:56.653Z,1003.63
2022-08-03T04:02:56.659Z,1003.62
2022-08-03T04:03:56.631Z,1003.65
2022-08-03T04:04:56.623Z,1003.69
2022-08-03T04:05:56.624Z,1003.64
2022-08-03T04:06:56.597Z,1003.66
2022-08-03T04:07:56.594Z,1003.69
2022-08-03T04:08:56.572Z,1003.69
2022-08-03T04:09:56.573Z,1003.67
2022-08-03T04:10:56.560Z,1003.62
2022-08-03T04:11:56.545Z,1003.68
2022-08-03T04:12:56.532Z,1003.72
2022-08-03T04:13:56.528Z,1003.76
2022-08-03T04:14:56.510Z,1003.69
2022-08-03T04:15:56.504Z,1003.69
2022-08-03T04:16:56.491Z,1003.71
2022-08-03T04:17:56.486Z,1003.71
2022-08-03T04:18:56.468Z,1003.73
2022-08-03T04:19:56.461Z,1003.73
2022-08-03T04:20:56.446Z,1003.68
2022-08-03T04:21:56.441Z,1003.74
2022-08-03T04:22:56.431Z,1003.67
2022-08-03T04:23:56.450Z,1003.69
2022-08-03T04:24:56.404Z,1003.67
2022-08-03T04:25:56.405Z,1003.73
2022-08-03T04:26:56.380Z,1003.74
2022-08-03T04:27:56.367Z,1003.73
2022-08-03T04:28:56.360Z,1003.74
2022-08-03T04:29:56.356Z,1003.76
2022-08-03T04:30:56.340Z,1003.73
2022-08-03T04:31:56.343Z,1003.78
2022-08-03T04:32:56.323Z,1003.74
2022-08-03T04:33:56.310Z,1003.81
2022-08-03T04:34:56.306Z,1003.83
2022-08-03T04:35:56.288Z,1003.86
2022-08-03T04:36:56.286Z,1003.86
2022-08-03T04:37:56.266Z,1003.88
2022-08-03T04:38:56.253Z,1003.88
2022-08-03T04:39:56.249Z,1003.87
2022-08-03T04:40:56.238Z,1003.92
2022-08-03T04:41:56.222Z,1003.9
2022-08-03T04:42:56.208Z,1003.87
2022-08-03T04:43:56.202Z,1003.97
2022-08-03T04:44:56.222Z,1003.89
2022-08-03T04:45:56.182Z,1003.92
2022-08-03T04:46:56.170Z,1003.92
2022-08-03T04:47:56.164Z,1003.92
2022-08-03T04:48:56.150Z,1003.92
2022-08-03T04:49:56.132Z,1003.92
2022-08-03T04:50:56.126Z,1003.91
2022-08-03T04:51:56.118Z,1003.91
2022-08-03T04:52:56.164Z,1003.94
2022-08-03T04:53:56.095Z,1003.9
2022-08-03T04:54:56.082Z,1003.96
2022-08-03T04:55:56.072Z,1003.92
2022-08-03T04:56:56.060Z,1003.86
2022-08-03T04:57:56.052Z,1003.89
2022-08-03T04:58:56.048Z,1003.96
2022-08-03T04:59:56.052Z,1003.91
2022-08-03T05:00:56.026Z,1003.91
2022-08-03T05:01:56.004Z,1003.91
2022-08-03T05:02:56.006Z,1003.92
2022-08-03T05:03:55.990Z,1003.87
2022-08-03T05:04:55.980Z,1003.92
2022-08-03T05:05:55.969Z,1003.98
2022-08-03T05:06:55.969Z,1003.89
2022-08-03T05:07:55.955Z,1003.94
2022-08-03T05:08:55.936Z,1003.9
2022-08-03T05:09:55.942Z,1003.99
2022-08-03T05:10:55.908Z,1003.91
2022-08-03T05:11:55.898Z,1003.87
2022-08-03T05:12:55.888Z,1003.88
2022-08-03T05:13:55.879Z,1003.98
2022-08-03T05:14:55.874Z,1003.94
2022-08-03T05:15:55.856Z,1003.88
2022-08-03T05:16:55.851Z,1003.91
2022-08-03T05:17:55.841Z,1003.91
2022-08-03T05:18:55.838Z,1003.87
2022-08-03T05:19:55.809Z,1003.87
2022-08-03T05:20:55.800Z,1003.84
2022-08-03T05:21:55.807Z,1003.86
2022-08-03T05:22:55.809Z,1003.81
2022-08-03T05:23:55.768Z,1003.87
2022-08-03T05:24:55.752Z,1003.87
2022-08-03T05:25:55.754Z,1003.8
2022-08-03T05:26:55.740Z,1003.81
2022-08-03T05:27:55.728Z,1003.78
2022-08-03T05:28:55.717Z,1003.83
2022-08-03T05:29:55.712Z,1003.83
2022-08-03T05:30:55.703Z,1003.87
2022-08-03T05:31:55.682Z,1003.81
2022-08-03T05:32:55.680Z,1003.85
2022-08-03T05:33:55.668Z,1003.89
2022-08-03T05:34:55.658Z,1003.84
2022-08-03T05:35:55.640Z,1003.9
2022-08-03T05:36:55.644Z,1003.88
2022-08-03T05:37:55.617Z,1003.86
2022-08-03T05:38:55.623Z,1003.88
2022-08-03T05:39:55.604Z,1003.85
2022-08-03T05:40:55.598Z,1003.89
2022-08-03T05:41:55.572Z,1003.83
2022-08-03T05:42:55.562Z,1003.81
2022-08-03T05:43:55.559Z,1003.82
2022-08-03T05:44:55.547Z,1003.82
2022-08-03T05:45:55.528Z,1003.81
2022-08-03T05:46:55.538Z,1003.82
2022-08-03T05:47:55.513Z,1003.91
2022-08-03T05:48:55.504Z,1003.87
2022-08-03T05:49:55.498Z,1003.92
2022-08-03T05:50:55.481Z,1003.81
2022-08-03T05:51:55.471Z,1003.79
2022-08-03T05:52:55.465Z,1003.87
2022-08-03T05:53:55.452Z,1003.85
2022-08-03T05:54:55.445Z,1003.83
2022-08-03T05:55:55.452Z,1003.85
2022-08-03T05:56:55.417Z,1003.83
2022-08-03T05:57:55.411Z,1003.78
2022-08-03T05:58:55.389Z,1003.78
2022-08-03T05:59:55.381Z,1003.81
2022-08-03T06:00:55.374Z,1003.79
2022-08-03T06:01:55.376Z,1003.85
2022-08-03T06:02:55.352Z,1003.78
2022-08-03T06:03:55.344Z,1003.83
2022-08-03T06:04:55.340Z,1003.83
2022-08-03T06:05:55.318Z,1003.87
2022-08-03T06:06:55.310Z,1003.82
2022-08-03T06:07:55.297Z,1003.92
2022-08-03T06:08:55.302Z,1003.88
2022-08-03T06:09:55.289Z,1003.86
2022-08-03T06:10:55.268Z,1003.88
2022-08-03T06:11:55.256Z,1003.84
2022-08-03T06:12:55.246Z,1003.88
2022-08-03T06:13:55.250Z,1003.88
2022-08-03T06:14:55.218Z,1003.87
2022-08-03T06:15:55.237Z,1003.88
2022-08-03T06:16:55.207Z,1003.85
2022-08-03T06:17:55.193Z,1003.87
2022-08-03T06:18:55.184Z,1003.85
2022-08-03T06:19:55.178Z,1003.81
2022-08-03T06:20:55.178Z,1003.83
2022-08-03T06:21:55.148Z,1003.9
2022-08-03T06:22:55.140Z,1003.87
2022-08-03T06:23:55.130Z,1003.8
2022-08-03T06:24:55.138Z,1003.86
2022-08-03T06:25:55.107Z,1003.83
2022-08-03T06:26:55.099Z,1003.88
2022-08-03T06:27:55.096Z,1003.88
2022-08-03T06:28:55.184Z,1003.86
2022-08-03T06:29:55.069Z,1003.89
2022-08-03T06:30:55.053Z,1003.88
2022-08-03T06:31:55.050Z,1003.91
2022-08-03T06:32:55.035Z,1003.88
2022-08-03T06:33:55.049Z,1003.88
2022-08-03T06:34:55.019Z,1003.91
2022-08-03T06:35:55.005Z,1003.93
2022-08-03T06:36:54.991Z,1003.94
2022-08-03T06:37:54.983Z,1003.95
2022-08-03T06:38:54.979Z,1003.96
2022-08-03T06:39:54.965Z,1003.96
2022-08-03T06:40:54.951Z,1003.92
2022-08-03T06:41:54.939Z,1003.97
2022-08-03T06:42:54.934Z,1003.97
2022-08-03T06:43:54.920Z,1003.94
2022-08-03T06:44:54.929Z,1004.02
2022-08-03T06:45:54.895Z,1003.96
2022-08-03T06:46:54.882Z,1003.97
2022-08-03T06:47:54.882Z,1003.94
2022-08-03T06:48:54.887Z,1004.01
2022-08-03T06:49:54.859Z,1003.98
2022-08-03T06:50:54.843Z,1003.98
2022-08-03T06:51:54.845Z,1003.98
2022-08-03T06:52:54.827Z,1003.96
2022-08-03T06:53:54.818Z,1004.01
2022-08-03T06:54:54.823Z,1004.02
2022-08-03T06:55:54.787Z,1004.05
2022-08-03T06:56:54.783Z,1003.98
2022-08-03T06:57:54.768Z,1004.04
2022-08-03T06:58:54.772Z,1004.04
2022-08-03T06:59:54.748Z,1004.05
2022-08-03T07:00:54.735Z,1003.99
2022-08-03T07:01:54.749Z,1004.05
2022-08-03T07:02:54.735Z,1003.98
2022-08-03T07:03:54.699Z,1003.99
2022-08-03T07:04:54.696Z,1003.99
2022-08-03T07:05:54.679Z,1004
2022-08-03T07:06:54.669Z,1004.01
2022-08-03T07:07:54.661Z,1003.99
2022-08-03T07:08:54.645Z,1003.97
2022-08-03T07:09:54.644Z,1003.96
2022-08-03T07:10:54.620Z,1004.05
2022-08-03T07:11:54.622Z,1004.07
2022-08-03T07:12:54.608Z,1004.06
2022-08-03T07:13:54.590Z,1004.09
2022-08-03T07:14:54.606Z,1004.06
2022-08-03T07:15:54.570Z,1004.03
2022-08-03T07:16:54.560Z,1004.04
2022-08-03T07:17:54.553Z,1004.01
2022-08-03T07:18:54.548Z,1004.07
2022-08-03T07:19:54.533Z,1004.08
2022-08-03T07:20:54.516Z,1004.03
2022-08-03T07:21:54.538Z,1004.02
2022-08-03T07:22:54.495Z,1004.04
2022-08-03T07:23:54.484Z,1004.02
2022-08-03T07:24:54.483Z,1004.02
2022-08-03T07:25:54.470Z,1004.01
2022-08-03T07:26:54.450Z,1004.03
2022-08-03T07:27:54.443Z,1004.02
2022-08-03T07:28:54.438Z,1004.02
2022-08-03T07:29:54.423Z,1004
2022-08-03T07:30:54.418Z,1004
2022-08-03T07:31:54.398Z,1004.01
2022-08-03T07:32:54.388Z,1004.04
2022-08-03T07:33:54.389Z,1004.05
2022-08-03T07:34:54.386Z,1004.04
2022-08-03T07:35:54.355Z,1004.04
2022-08-03T07:36:54.346Z,1004.06
2022-08-03T07:37:54.343Z,1003.96
2022-08-03T07:38:54.325Z,1003.96
2022-08-03T07:39:54.352Z,1003.95
2022-08-03T07:40:54.315Z,1003.98
2022-08-03T07:41:54.298Z,1003.99
2022-08-03T07:42:54.278Z,1004.01
2022-08-03T07:43:54.270Z,1004.03
2022-08-03T07:44:54.829Z,1003.98
2022-08-03T07:45:54.256Z,1004
2022-08-03T07:46:54.243Z,1004
2022-08-03T07:47:54.230Z,1003.96
2022-08-03T07:48:54.217Z,1003.99
2022-08-03T07:49:54.225Z,1003.99
2022-08-03T07:50:54.202Z,1003.97
2022-08-03T07:51:54.189Z,1004.01
2022-08-03T07:52:54.181Z,1003.98
2022-08-03T07:53:54.164Z,1003.93
2022-08-03T07:54:54.155Z,1003.99
2022-08-03T07:55:54.147Z,1003.94
2022-08-03T07:56:54.146Z,1004.01
2022-08-03T07:57:54.121Z,1004.04
2022-08-03T07:58:54.108Z,1004.01
2022-08-03T07:59:54.121Z,1003.99
2022-08-03T08:00:54.110Z,1004
2022-08-03T08:01:54.085Z,1003.98
2022-08-03T08:02:54.097Z,1003.98
2022-08-03T08:03:54.058Z,1004.04
2022-08-03T08:04:54.048Z,1003.97
2022-08-03T08:05:54.030Z,1004.02
2022-08-03T08:06:54.022Z,1003.98
2022-08-03T08:07:54.014Z,1004.01
2022-08-03T08:08:54.010Z,1004
2022-08-03T08:09:53.998Z,1004.03
2022-08-03T08:10:53.983Z,1004.01
2022-08-03T08:11:53.966Z,1003.92
2022-08-03T08:12:53.958Z,1003.92
2022-08-03T08:13:53.957Z,1003.93
2022-08-03T08:14:53.963Z,1003.88
2022-08-03T08:15:53.926Z,1003.94
2022-08-03T08:16:53.924Z,1003.97
2022-08-03T08:17:53.907Z,1003.98
2022-08-03T08:18:53.895Z,1003.96
2022-08-03T08:19:53.884Z,1004.02
2022-08-03T08:20:53.872Z,1003.97
2022-08-03T08:21:53.866Z,1003.96
2022-08-03T08:22:53.853Z,1004
2022-08-03T08:23:53.850Z,1003.92
2022-08-03T08:24:53.833Z,1003.89
2022-08-03T08:25:53.829Z,1003.88
2022-08-03T08:26:53.828Z,1003.88
2022-08-03T08:27:53.802Z,1003.87
2022-08-03T08:28:53.814Z,1003.88
2022-08-03T08:29:53.780Z,1003.89
2022-08-03T08:30:53.770Z,1003.93
2022-08-03T08:31:53.808Z,1003.94
2022-08-03T08:32:53.792Z,1003.89
2022-08-03T08:33:53.757Z,1003.92
2022-08-03T08:34:53.723Z,1003.88
2022-08-03T08:35:53.717Z,1003.9
2022-08-03T08:36:53.705Z,1003.97
2022-08-03T08:37:53.692Z,1003.95
2022-08-03T08:38:53.678Z,1003.95
2022-08-03T08:39:53.691Z,1003.99
2022-08-03T08:40:53.658Z,1003.96
2022-08-03T08:41:53.647Z,1003.97
2022-08-03T08:42:53.649Z,1003.98
2022-08-03T08:43:53.631Z,1003.87
2022-08-03T08:44:53.616Z,1003.92
2022-08-03T08:45:53.608Z,1003.82
2022-08-03T08:46:53.598Z,1003.84
2022-08-03T08:47:53.588Z,1003.88
2022-08-03T08:48:53.596Z,1003.85
2022-08-03T08:49:53.564Z,1003.85
2022-08-03T08:50:53.583Z,1003.9
2022-08-03T08:51:53.550Z,1003.91
2022-08-03T08:52:53.563Z,1003.88
2022-08-03T08:53:53.525Z,1003.81
2022-08-03T08:54:53.528Z,1003.86
2022-08-03T08:55:53.533Z,1003.88
2022-08-03T08:56:53.494Z,1003.88
2022-08-03T08:57:53.481Z,1003.85
2022-08-03T08:58:53.473Z,1003.86
2022-08-03T08:59:53.465Z,1003.88
2022-08-03T09:00:53.492Z,1003.91
2022-08-03T09:01:53.439Z,1003.99
2022-08-03T09:02:53.431Z,1003.93
2022-08-03T09:03:53.422Z,1003.9
2022-08-03T09:04:53.462Z,1003.93
2022-08-03T09:05:53.408Z,1003.92
2022-08-03T09:06:53.397Z,1003.85
2022-08-03T09:07:53.379Z,1003.85
2022-08-03T09:08:53.366Z,1003.83
2022-08-03T09:09:53.364Z,1003.91
2022-08-03T09:10:53.349Z,1003.91
2022-08-03T09:11:53.334Z,1003.88
2022-08-03T09:12:53.343Z,1003.93
2022-08-03T09:13:53.315Z,1003.86
2022-08-03T09:14:53.307Z,1003.86
2022-08-03T09:15:53.302Z,1003.85
2022-08-03T09:16:53.284Z,1003.93
2022-08-03T09:17:53.275Z,1003.86
2022-08-03T09:18:53.321Z,1003.9
2022-08-03T09:19:53.249Z,1003.88
2022-08-03T09:20:53.240Z,1003.91
2022-08-03T09:21:53.237Z,1003.92
2022-08-03T09:22:53.222Z,1003.88
2022-08-03T09:23:53.223Z,1003.88
2022-08-03T09:24:53.226Z,1003.92
2022-08-03T09:25:53.195Z,1003.82
2022-08-03T09:26:53.185Z,1003.83
2022-08-03T09:27:53.169Z,1003.87
2022-08-03T09:28:53.208Z,1003.8
2022-08-03T09:29:53.149Z,1003.79
2022-08-03T09:30:53.146Z,1003.84
2022-08-03T09:31:53.122Z,1003.88
2022-08-03T09:32:53.122Z,1003.87
2022-08-03T09:33:53.105Z,1003.84
2022-08-03T09:34:53.123Z,1003.83
2022-08-03T09:35:53.094Z,1003.89
2022-08-03T09:36:53.074Z,1003.82
2022-08-03T09:37:53.059Z,1003.86
2022-08-03T09:38:53.057Z,1003.89
2022-08-03T09:39:53.064Z,1003.73
2022-08-03T09:40:53.039Z,1003.72
2022-08-03T09:41:53.030Z,1003.8
2022-08-03T09:42:53.024Z,1003.79
2022-08-03T09:43:53.007Z,1003.81
2022-08-03T09:44:52.996Z,1003.76
2022-08-03T09:45:52.997Z,1003.82
2022-08-03T09:46:52.966Z,1003.8
2022-08-03T09:47:52.963Z,1003.83
2022-08-03T09:48:52.955Z,1003.75
2022-08-03T09:49:52.963Z,1003.79
2022-08-03T09:50:52.925Z,1003.75
2022-08-03T09:51:52.913Z,1003.77
2022-08-03T09:52:52.902Z,1003.78
2022-08-03T09:53:52.916Z,1003.79
2022-08-03T09:54:52.888Z,1003.69
2022-08-03T09:55:52.884Z,1003.81
2022-08-03T09:56:52.877Z,1003.75
2022-08-03T09:57:52.858Z,1003.72
2022-08-03T09:58:52.844Z,1003.76
2022-08-03T09:59:52.836Z,1003.8
2022-08-03T10:00:52.829Z,1003.76
2022-08-03T10:01:52.820Z,1003.72
2022-08-03T10:02:52.806Z,1003.69
2022-08-03T10:03:52.805Z,1003.68
2022-08-03T10:04:52.822Z,1003.79
2022-08-03T10:05:52.778Z,1003.71
2022-08-03T10:06:52.779Z,1003.79
2022-08-03T10:07:52.770Z,1003.7
2022-08-03T10:08:52.745Z,1003.72
2022-08-03T10:09:52.765Z,1003.67
2022-08-03T10:10:52.724Z,1003.76
2022-08-03T10:11:52.713Z,1003.75
2022-08-03T10:12:52.704Z,1003.72
2022-08-03T10:13:52.716Z,1003.68
2022-08-03T10:14:52.694Z,1003.72
2022-08-03T10:15:52.677Z,1003.75
2022-08-03T10:16:52.663Z,1003.73
2022-08-03T10:17:52.662Z,1003.64
2022-08-03T10:18:52.644Z,1003.69
2022-08-03T10:19:52.634Z,1003.7
2022-08-03T10:20:52.619Z,1003.66
2022-08-03T10:21:52.608Z,1003.65
2022-08-03T10:22:52.602Z,1003.7
2022-08-03T10:23:52.602Z,1003.67
2022-08-03T10:24:52.645Z,1003.58
2022-08-03T10:25:52.584Z,1003.65
2022-08-03T10:26:52.563Z,1003.69
2022-08-03T10:27:52.549Z,1003.65
2022-08-03T10:28:52.539Z,1003.66
2022-08-03T10:29:52.533Z,1003.56
2022-08-03T10:30:52.518Z,1003.61
2022-08-03T10:31:52.508Z,1003.56
2022-08-03T10:32:52.501Z,1003.6
2022-08-03T10:33:52.488Z,1003.59
2022-08-03T10:34:52.491Z,1003.64
2022-08-03T10:35:52.467Z,1003.57
2022-08-03T10:36:52.466Z,1003.58
2022-08-03T10:37:52.445Z,1003.54
2022-08-03T10:38:52.434Z,1003.59
2022-08-03T10:39:52.424Z,1003.59
2022-08-03T10:40:52.407Z,1003.56
2022-08-03T10:41:52.401Z,1003.59
2022-08-03T10:42:52.398Z,1003.47
2022-08-03T10:43:52.378Z,1003.59
2022-08-03T10:44:52.372Z,1003.61
2022-08-03T10:45:52.377Z,1003.57
2022-08-03T10:46:52.350Z,1003.57
2022-08-03T10:47:52.340Z,1003.6
2022-08-03T10:48:52.336Z,1003.55
2022-08-03T10:49:52.327Z,1003.56
2022-08-03T10:50:53.295Z,1003.55
2022-08-03T10:51:52.310Z,1003.5
2022-08-03T10:52:52.322Z,1003.55
2022-08-03T10:53:52.299Z,1003.46
2022-08-03T10:54:52.290Z,1003.54
2022-08-03T10:55:52.268Z,1003.53
2022-08-03T10:56:52.243Z,1003.46
2022-08-03T10:57:52.245Z,1003.49
2022-08-03T10:58:52.231Z,1003.55
2022-08-03T10:59:52.235Z,1003.48
2022-08-03T11:00:52.225Z,1003.47
2022-08-03T11:01:52.199Z,1003.5
2022-08-03T11:02:52.189Z,1003.39
2022-08-03T11:03:52.173Z,1003.46
2022-08-03T11:04:52.169Z,1003.39
2022-08-03T11:05:52.174Z,1003.45
2022-08-03T11:06:52.152Z,1003.34
2022-08-03T11:07:52.129Z,1003.36
2022-08-03T11:08:52.126Z,1003.31
2022-08-03T11:09:52.116Z,1003.41
2022-08-03T11:10:52.101Z,1003.35
2022-08-03T11:11:52.088Z,1003.34
2022-08-03T11:12:52.087Z,1003.35
2022-08-03T11:13:52.094Z,1003.36
2022-08-03T11:14:52.067Z,1003.32
2022-08-03T11:15:52.054Z,1003.32
2022-08-03T11:16:52.042Z,1003.49
2022-08-03T11:17:52.034Z,1003.38
2022-08-03T11:18:52.037Z,1003.43
2022-08-03T11:19:52.020Z,1003.49
2022-08-03T11:20:52.017Z,1003.39
2022-08-03T11:21:51.997Z,1003.33
2022-08-03T11:22:51.978Z,1003.3
2022-08-03T11:23:51.969Z,1003.38
2022-08-03T11:24:51.988Z,1003.43
2022-08-03T11:25:51.953Z,1003.38
2022-08-03T11:26:51.943Z,1003.42
2022-08-03T11:27:51.938Z,1003.38
2022-08-03T11:28:51.924Z,1003.4
2022-08-03T11:29:51.920Z,1003.39
2022-08-03T11:30:51.905Z,1003.34
2022-08-03T11:31:51.888Z,1003.42
2022-08-03T11:32:51.876Z,1003.41
2022-08-03T11:33:51.875Z,1003.28
2022-08-03T11:34:51.862Z,1003.36
2022-08-03T11:35:51.875Z,1003.31
2022-08-03T11:36:51.856Z,1003.33
2022-08-03T11:37:51.832Z,1003.41
2022-08-03T11:38:51.835Z,1003.39
2022-08-03T11:39:51.819Z,1003.41
2022-08-03T11:40:51.802Z,1003.38
2022-08-03T11:41:51.800Z,1003.38
2022-08-03T11:42:51.779Z,1003.33
2022-08-03T11:43:51.772Z,1003.34
2022-08-03T11:44:51.758Z,1003.34
2022-08-03T11:45:51.761Z,1003.32
2022-08-03T11:47:06.404Z,1003.28
2022-08-03T11:47:51.730Z,1003.25
2022-08-03T11:48:51.742Z,1003.26
2022-08-03T11:49:51.706Z,1003.32
2022-08-03T11:50:51.709Z,1003.3
2022-08-03T11:51:51.688Z,1003.34
2022-08-03T11:52:51.677Z,1003.42
2022-08-03T11:53:51.676Z,1003.32
2022-08-03T11:54:51.657Z,1003.33
2022-08-03T11:55:51.655Z,1003.37
2022-08-03T11:56:51.636Z,1003.42
2022-08-03T11:57:51.640Z,1003.35
2022-08-03T11:58:51.620Z,1003.32
2022-08-03T11:59:51.634Z,1003.4
2022-08-03T12:00:51.596Z,1003.35
2022-08-03T12:01:51.598Z,1003.37
2022-08-03T12:02:51.578Z,1003.34
2022-08-03T12:03:51.569Z,1003.38
2022-08-03T12:04:51.561Z,1003.34
2022-08-03T12:05:51.544Z,1003.32
2022-08-03T12:06:51.536Z,1003.28
2022-08-03T12:07:51.530Z,1003.23
2022-08-03T12:08:51.542Z,1003.34